createdAt,value
2019-05-22T00:01:33.114Z,22.20
2019-05-22T00:04:06.646Z,22.37
2019-05-22T00:06:37.431Z,23.43
2019-05-22T00:09:09.561Z,25.30
2019-05-22T00:11:39.669Z,21.77
2019-05-22T00:14:10.356Z,25.37
2019-05-22T00:16:40.017Z,21.80
2019-05-22T00:19:10.094Z,23.77
2019-05-22T00:21:40.347Z,24.37
2019-05-22T00:24:10.626Z,22.67
2019-05-22T00:26:40.505Z,25.37
2019-05-22T00:29:10.411Z,24.13
2019-05-22T00:31:40.261Z,23.87
2019-05-22T00:34:11.577Z,25.57
2019-05-22T00:36:40.912Z,24.67
2019-05-22T00:39:10.527Z,25.83
2019-05-22T00:41:39.962Z,23.27
2019-05-22T00:44:12.805Z,28.23
2019-05-22T00:46:41.553Z,24.83
2019-05-22T00:49:12.928Z,23.97
2019-05-22T00:51:56.562Z,23.37
2019-05-22T00:54:40.231Z,24.90
2019-05-22T00:57:13.751Z,22.33
2019-05-22T00:59:44.207Z,23.60
2019-05-22T01:02:14.971Z,22.57
2019-05-22T01:04:43.552Z,23.70
2019-05-22T01:07:20.504Z,23.83
2019-05-22T01:09:52.108Z,25.23
2019-05-22T01:12:27.628Z,23.37
2019-05-22T01:14:58.782Z,21.27
2019-05-22T01:17:29.735Z,21.07
2019-05-22T01:20:01.061Z,22.80
2019-05-22T01:22:31.251Z,24.23
2019-05-22T01:25:00.966Z,25.07
2019-05-22T01:27:30.131Z,25.83
2019-05-22T01:30:00.467Z,25.53
2019-05-22T01:32:46.412Z,26.50
2019-05-22T01:35:16.816Z,29.67
2019-05-22T01:37:45.429Z,33.97
2019-05-22T01:40:23.949Z,33.00
2019-05-22T01:42:54.168Z,30.83
2019-05-22T01:45:25.231Z,34.97
2019-05-22T01:47:59.850Z,31.00
2019-05-22T01:50:49.025Z,29.70
2019-05-22T01:53:20.505Z,33.50
2019-05-22T01:55:51.854Z,34.10
2019-05-22T01:58:21.884Z,36.43
2019-05-22T02:00:53.715Z,34.30
2019-05-22T02:03:43.144Z,38.43
2019-05-22T02:06:12.669Z,39.00
2019-05-22T02:08:45.124Z,36.40
2019-05-22T02:11:16.405Z,39.23
2019-05-22T02:13:48.738Z,36.53
2019-05-22T02:16:17.246Z,34.80
2019-05-22T02:18:48.157Z,35.13
2019-05-22T02:21:17.069Z,31.27
2019-05-22T02:23:47.568Z,33.93
2019-05-22T02:26:18.019Z,30.37
2019-05-22T02:28:46.749Z,29.60
2019-05-22T02:31:17.553Z,24.03
2019-05-22T02:33:53.690Z,23.87
2019-05-22T02:36:22.921Z,22.97
2019-05-22T02:38:52.156Z,23.03
2019-05-22T02:41:20.730Z,20.37
2019-05-22T02:43:50.005Z,25.03
2019-05-22T02:46:19.229Z,20.33
2019-05-22T02:48:50.095Z,22.70
2019-05-22T02:51:18.850Z,18.93
2019-05-22T02:53:48.077Z,18.97
2019-05-22T02:56:17.299Z,20.67
2019-05-22T02:58:46.088Z,18.60
2019-05-22T03:01:16.285Z,17.23
2019-05-22T03:03:45.850Z,20.60
2019-05-22T03:06:15.410Z,21.33
2019-05-22T03:08:59.686Z,22.27
2019-05-22T03:11:35.186Z,19.77
2019-05-22T03:14:04.536Z,18.00
2019-05-22T03:16:54.309Z,16.97
2019-05-22T03:19:39.131Z,18.27
2019-05-22T03:22:20.777Z,17.70
2019-05-22T03:24:51.585Z,16.20
2019-05-22T03:27:39.941Z,16.27
2019-05-22T03:30:27.209Z,17.80
2019-05-22T03:32:57.018Z,16.97
2019-05-22T03:35:27.992Z,16.63
2019-05-22T03:37:59.282Z,16.97
2019-05-22T03:40:29.833Z,15.40
2019-05-22T03:43:02.030Z,15.50
2019-05-22T03:45:31.417Z,16.73
2019-05-22T03:48:01.644Z,16.63
2019-05-22T03:50:30.349Z,20.10
2019-05-22T03:53:01.987Z,20.13
2019-05-22T03:55:30.763Z,17.87
2019-05-22T03:57:59.340Z,19.00
2019-05-22T04:00:28.131Z,20.20
2019-05-22T04:02:57.257Z,21.70
2019-05-22T04:05:27.830Z,23.80
2019-05-22T04:07:58.444Z,22.60
2019-05-22T04:10:30.086Z,22.33
2019-05-22T04:12:58.651Z,22.50
2019-05-22T04:15:27.859Z,21.40
2019-05-22T04:17:59.021Z,20.60
2019-05-22T04:20:30.199Z,22.50
2019-05-22T04:22:59.722Z,21.00
2019-05-22T04:25:28.739Z,21.07
2019-05-22T04:27:58.434Z,21.37
2019-05-22T04:30:28.523Z,20.53
2019-05-22T04:32:57.460Z,20.10
2019-05-22T04:35:28.186Z,22.33
2019-05-22T04:37:57.596Z,18.83
2019-05-22T04:40:38.254Z,21.33
2019-05-22T04:43:08.453Z,19.87
2019-05-22T04:45:37.878Z,21.47
2019-05-22T04:48:06.578Z,20.90
2019-05-22T04:50:35.311Z,21.80
2019-05-22T04:53:05.577Z,22.13
2019-05-22T04:55:34.858Z,21.90
2019-05-22T04:58:11.226Z,21.13
2019-05-22T05:00:39.985Z,21.60
2019-05-22T05:03:09.097Z,21.50
2019-05-22T05:05:45.938Z,24.33
2019-05-22T05:08:15.223Z,22.30
2019-05-22T05:10:47.007Z,25.80
2019-05-22T05:13:15.882Z,22.00
2019-05-22T05:15:44.460Z,24.93
2019-05-22T05:18:14.029Z,25.97
2019-05-22T05:20:43.546Z,25.57
2019-05-22T05:23:12.752Z,23.23
2019-05-22T05:25:43.430Z,24.27
2019-05-22T05:28:12.556Z,28.10
2019-05-22T05:30:41.547Z,27.53
2019-05-22T05:33:11.241Z,24.67
2019-05-22T05:35:40.273Z,24.87
2019-05-22T05:38:09.498Z,23.90
2019-05-22T05:40:40.595Z,24.40
2019-05-22T05:43:14.274Z,21.67
2019-05-22T05:45:45.325Z,19.30
2019-05-22T05:48:19.743Z,21.30
2019-05-22T05:51:07.054Z,20.93
2019-05-22T05:53:55.103Z,17.97
2019-05-22T05:56:26.893Z,14.73
2019-05-22T05:58:57.962Z,16.00
2019-05-22T06:01:28.435Z,17.07
2019-05-22T06:03:58.597Z,26.20
2019-05-22T06:06:33.044Z,32.37
2019-05-22T06:09:03.411Z,34.23
2019-05-22T06:11:41.066Z,32.97
2019-05-22T06:14:22.268Z,33.10
2019-05-22T06:17:07.633Z,34.77
2019-05-22T06:19:41.796Z,29.60
2019-05-22T06:22:12.486Z,26.97
2019-05-22T06:24:49.888Z,24.33
2019-05-22T06:27:20.100Z,20.83
2019-05-22T06:29:55.787Z,21.67
2019-05-22T06:32:34.602Z,22.13
2019-05-22T06:35:03.607Z,21.83
2019-05-22T06:37:51.887Z,29.40
2019-05-22T06:40:21.135Z,29.60
2019-05-22T06:43:09.096Z,36.80
2019-05-22T06:45:38.090Z,39.30
2019-05-22T06:48:07.031Z,42.10
2019-05-22T06:50:35.790Z,40.27
2019-05-22T06:53:09.792Z,44.40
2019-05-22T06:55:34.821Z,43.43
2019-05-22T06:58:03.751Z,42.67
2019-05-22T07:00:32.410Z,45.67
2019-05-22T07:03:02.021Z,47.50
2019-05-22T07:05:31.660Z,44.83
2019-05-22T07:08:00.995Z,44.17
2019-05-22T07:10:31.691Z,39.90
2019-05-22T07:13:00.781Z,36.87
2019-05-22T07:15:31.892Z,38.40
2019-05-22T07:18:01.509Z,35.03
2019-05-22T07:20:32.486Z,39.83
2019-05-22T07:23:01.973Z,38.80
2019-05-22T07:25:33.072Z,50.17
2019-05-22T07:28:02.021Z,49.13
2019-05-22T07:30:31.906Z,57.67
2019-05-22T07:33:00.895Z,54.53
2019-05-22T07:35:44.161Z,50.40
2019-05-22T07:38:00.901Z,51.77
2019-05-22T07:40:30.183Z,49.73
2019-05-22T07:42:58.752Z,51.87
2019-05-22T07:45:29.599Z,54.67
2019-05-22T07:47:59.703Z,54.83
2019-05-22T07:50:29.200Z,45.17
2019-05-22T07:52:57.782Z,47.80
2019-05-22T07:55:28.099Z,42.53
2019-05-22T07:58:11.998Z,48.90
2019-05-22T08:00:43.853Z,45.37
2019-05-22T08:03:12.929Z,51.40
2019-05-22T08:05:44.695Z,50.67
2019-05-22T08:08:18.620Z,46.20
2019-05-22T08:10:46.525Z,47.47
2019-05-22T08:13:15.910Z,44.23
2019-05-22T08:15:47.680Z,42.77
2019-05-22T08:18:16.674Z,46.20
2019-05-22T08:20:45.691Z,44.13
2019-05-22T08:23:15.481Z,44.40
2019-05-22T08:25:44.221Z,51.57
2019-05-22T08:28:13.646Z,53.07
2019-05-22T08:30:42.339Z,44.97
2019-05-22T08:33:14.162Z,48.87
2019-05-22T08:35:44.063Z,45.33
2019-05-22T08:38:14.052Z,48.77
2019-05-22T08:40:43.545Z,45.37
2019-05-22T08:43:12.762Z,48.90
2019-05-22T08:45:41.866Z,42.23
2019-05-22T08:48:12.254Z,45.17
2019-05-22T08:50:42.227Z,41.53
2019-05-22T08:53:14.094Z,43.30
2019-05-22T08:55:43.577Z,37.07
2019-05-22T08:58:13.991Z,35.57
2019-05-22T09:00:42.540Z,35.57
2019-05-22T09:03:11.593Z,35.97
2019-05-22T09:05:40.159Z,32.03
2019-05-22T09:08:08.802Z,26.43
2019-05-22T09:10:37.731Z,21.93
2019-05-22T09:13:06.516Z,25.23
2019-05-22T09:15:37.449Z,25.77
2019-05-22T09:18:06.920Z,24.60
2019-05-22T09:20:49.013Z,25.87
2019-05-22T09:23:07.869Z,22.43
2019-05-22T09:25:36.499Z,25.30
2019-05-22T09:28:06.770Z,21.50
2019-05-22T09:30:36.040Z,21.93
2019-05-22T09:33:06.448Z,19.53
2019-05-22T09:35:35.285Z,19.90
2019-05-22T09:38:03.932Z,17.90
2019-05-22T09:40:32.952Z,18.93
2019-05-22T09:43:03.350Z,17.50
2019-05-22T09:45:32.226Z,21.33
2019-05-22T09:48:01.060Z,20.17
2019-05-22T09:50:30.282Z,19.60
2019-05-22T09:52:58.914Z,22.20
2019-05-22T09:55:28.835Z,19.87
2019-05-22T09:57:57.385Z,22.83
2019-05-22T10:00:27.399Z,20.00
2019-05-22T10:02:56.229Z,19.90
2019-05-22T10:05:25.252Z,23.87
2019-05-22T10:08:01.079Z,19.60
2019-05-22T10:10:26.818Z,19.20
2019-05-22T10:12:55.548Z,22.27
2019-05-22T10:15:25.642Z,25.10
2019-05-22T10:17:54.747Z,22.10
2019-05-22T10:20:24.067Z,22.77
2019-05-22T10:22:53.061Z,22.73
2019-05-22T10:25:22.071Z,20.00
2019-05-22T10:27:50.965Z,20.60
2019-05-22T10:30:23.466Z,19.70
2019-05-22T10:32:52.207Z,22.80
2019-05-22T10:35:26.833Z,22.03
2019-05-22T10:37:55.824Z,24.33
2019-05-22T10:40:25.365Z,24.37
2019-05-22T10:42:54.259Z,23.30
2019-05-22T10:45:22.934Z,27.57
2019-05-22T10:47:51.473Z,24.10
2019-05-22T10:50:20.691Z,29.17
2019-05-22T10:52:54.215Z,24.33
2019-05-22T10:55:21.423Z,26.80
2019-05-22T10:57:50.177Z,29.63
2019-05-22T11:00:20.073Z,28.20
2019-05-22T11:02:49.163Z,29.47
2019-05-22T11:05:20.194Z,31.77
2019-05-22T11:07:50.465Z,28.37
2019-05-22T11:10:21.071Z,30.10
2019-05-22T11:12:50.512Z,30.40
2019-05-22T11:15:19.604Z,32.13
2019-05-22T11:17:49.032Z,28.37
2019-05-22T11:20:18.430Z,26.40
2019-05-22T11:22:47.373Z,29.53
2019-05-22T11:25:17.530Z,27.20
2019-05-22T11:27:46.456Z,25.60
2019-05-22T11:30:16.782Z,24.33
2019-05-22T11:32:45.947Z,23.13
2019-05-22T11:35:15.684Z,26.30
2019-05-22T11:37:44.631Z,28.77
2019-05-22T11:40:16.244Z,18.87
2019-05-22T11:42:44.885Z,22.67
2019-05-22T11:45:15.064Z,23.63
2019-05-22T11:47:44.376Z,20.43
2019-05-22T11:50:13.426Z,17.40
2019-05-22T11:52:42.576Z,21.37
2019-05-22T11:55:13.614Z,21.23
2019-05-22T11:57:43.913Z,19.17
2019-05-22T12:00:13.685Z,20.43
2019-05-22T12:02:44.092Z,22.17
2019-05-22T12:05:15.427Z,17.80
2019-05-22T12:07:44.787Z,20.80
2019-05-22T12:10:15.720Z,17.80
2019-05-22T12:12:45.335Z,18.10
2019-05-22T12:15:15.121Z,17.57
2019-05-22T12:17:45.082Z,16.70
2019-05-22T12:20:14.504Z,18.23
2019-05-22T12:22:43.904Z,18.67
2019-05-22T12:25:14.874Z,18.00
2019-05-22T12:27:43.686Z,16.83
2019-05-22T12:30:14.810Z,20.60
2019-05-22T12:32:43.628Z,20.17
2019-05-22T12:35:15.252Z,18.00
2019-05-22T12:37:44.036Z,16.93
2019-05-22T12:40:16.167Z,17.50
2019-05-22T12:42:45.758Z,17.40
2019-05-22T12:45:15.476Z,15.33
2019-05-22T12:47:44.263Z,18.43
2019-05-22T12:50:16.906Z,18.50
2019-05-22T12:52:48.679Z,17.80
2019-05-22T12:55:19.572Z,18.70
2019-05-22T12:57:49.607Z,15.80
2019-05-22T13:00:21.619Z,16.03
2019-05-22T13:02:52.110Z,15.27
2019-05-22T13:05:21.786Z,14.37
2019-05-22T13:07:51.442Z,14.70
2019-05-22T13:10:21.967Z,14.73
2019-05-22T13:12:51.185Z,16.33
2019-05-22T13:15:21.668Z,14.17
2019-05-22T13:17:51.692Z,15.37
2019-05-22T13:20:40.585Z,14.50
2019-05-22T13:22:54.026Z,14.33
2019-05-22T13:25:26.273Z,14.77
2019-05-22T13:27:55.043Z,18.80
2019-05-22T13:30:28.491Z,19.77
2019-05-22T13:32:57.035Z,12.90
2019-05-22T13:35:26.756Z,12.20
2019-05-22T13:37:57.162Z,11.60
2019-05-22T13:40:28.322Z,13.50
2019-05-22T13:42:58.725Z,14.70
2019-05-22T13:45:30.234Z,13.13
2019-05-22T13:47:58.767Z,13.97
2019-05-22T13:50:29.149Z,12.67
2019-05-22T13:53:00.805Z,12.83
2019-05-22T13:55:30.478Z,11.77
2019-05-22T13:58:00.670Z,12.47
2019-05-22T14:00:29.585Z,12.20
2019-05-22T14:02:59.382Z,13.70
2019-05-22T14:05:29.514Z,12.90
2019-05-22T14:07:58.607Z,13.07
2019-05-22T14:10:28.786Z,12.87
2019-05-22T14:12:57.752Z,13.33
2019-05-22T14:15:26.876Z,14.00
2019-05-22T14:17:56.557Z,17.27
2019-05-22T14:20:25.380Z,14.73
2019-05-22T14:22:54.410Z,14.97
2019-05-22T14:25:24.177Z,13.60
2019-05-22T14:27:53.179Z,13.57
2019-05-22T14:30:24.394Z,13.47
2019-05-22T14:32:54.495Z,12.83
2019-05-22T14:35:25.691Z,12.37
2019-05-22T14:37:55.395Z,13.67
2019-05-22T14:40:24.796Z,11.70
2019-05-22T14:42:54.005Z,12.33
2019-05-22T14:45:24.054Z,12.10
2019-05-22T14:47:52.722Z,13.33
2019-05-22T14:50:23.640Z,11.97
2019-05-22T14:52:52.646Z,12.83
2019-05-22T14:55:22.154Z,13.43
2019-05-22T14:57:51.725Z,13.77
2019-05-22T15:00:22.334Z,13.37
2019-05-22T15:02:56.190Z,14.87
2019-05-22T15:05:22.319Z,14.13
2019-05-22T15:07:50.977Z,13.83
2019-05-22T15:10:21.848Z,16.67
2019-05-22T15:12:51.112Z,16.00
2019-05-22T15:15:20.222Z,18.00
2019-05-22T15:17:49.446Z,18.13
2019-05-22T15:20:21.951Z,16.83
2019-05-22T15:22:50.761Z,14.93
2019-05-22T15:25:19.785Z,16.03
2019-05-22T15:27:48.521Z,16.30
2019-05-22T15:30:18.830Z,17.30
2019-05-22T15:32:47.823Z,17.50
2019-05-22T15:35:18.435Z,16.83
2019-05-22T15:37:47.077Z,16.90
2019-05-22T15:40:17.774Z,17.33
2019-05-22T15:42:46.672Z,17.07
2019-05-22T15:45:18.971Z,19.13
2019-05-22T15:47:55.181Z,16.10
2019-05-22T15:50:30.365Z,16.87
2019-05-22T15:53:06.940Z,16.70
2019-05-22T15:55:36.678Z,18.27
2019-05-22T15:58:06.653Z,19.03
2019-05-22T16:00:37.645Z,18.03
2019-05-22T16:03:12.553Z,19.07
2019-05-22T16:05:43.599Z,19.27
2019-05-22T16:08:13.946Z,16.83
2019-05-22T16:10:44.923Z,19.33
2019-05-22T16:13:15.961Z,19.07
2019-05-22T16:15:47.036Z,17.33
2019-05-22T16:18:18.748Z,16.60
2019-05-22T16:20:48.649Z,17.33
2019-05-22T16:23:21.213Z,15.17
2019-05-22T16:25:50.522Z,15.67
2019-05-22T16:28:19.466Z,15.93
2019-05-22T16:30:48.944Z,16.70
2019-05-22T16:33:18.462Z,18.13
2019-05-22T16:35:47.495Z,19.97
2019-05-22T16:38:16.688Z,19.47
2019-05-22T16:40:45.698Z,18.57
2019-05-22T16:43:15.495Z,17.90
2019-05-22T16:45:44.182Z,22.23
2019-05-22T16:48:28.327Z,20.03
2019-05-22T16:50:47.413Z,18.83
2019-05-22T16:53:17.767Z,20.60
2019-05-22T16:55:46.514Z,18.67
2019-05-22T16:58:16.233Z,18.27
2019-05-22T17:00:45.422Z,18.63
2019-05-22T17:03:16.226Z,23.57
2019-05-22T17:05:46.499Z,24.90
2019-05-22T17:08:16.116Z,21.13
2019-05-22T17:10:44.983Z,21.77
2019-05-22T17:13:16.662Z,20.80
2019-05-22T17:15:45.567Z,19.53
2019-05-22T17:18:17.300Z,21.27
2019-05-22T17:20:47.586Z,19.50
2019-05-22T17:23:17.402Z,20.17
2019-05-22T17:25:46.763Z,18.43
2019-05-22T17:28:17.527Z,19.00
2019-05-22T17:30:46.913Z,23.13
2019-05-22T17:33:15.912Z,19.33
2019-05-22T17:35:44.996Z,21.53
2019-05-22T17:38:14.406Z,22.17
2019-05-22T17:40:43.484Z,22.13
2019-05-22T17:43:14.355Z,19.27
2019-05-22T17:45:44.876Z,19.37
2019-05-22T17:48:16.450Z,22.10
2019-05-22T17:50:47.239Z,20.67
2019-05-22T17:53:17.814Z,19.57
2019-05-22T17:55:48.219Z,24.70
2019-05-22T17:58:16.976Z,22.40
2019-05-22T18:00:47.993Z,21.07
2019-05-22T18:03:17.678Z,25.00
2019-05-22T18:05:47.300Z,22.37
2019-05-22T18:08:16.860Z,22.43
2019-05-22T18:10:48.585Z,28.00
2019-05-22T18:13:17.390Z,21.93
2019-05-22T18:15:46.789Z,23.10
2019-05-22T18:18:15.777Z,25.17
2019-05-22T18:20:44.596Z,23.03
2019-05-22T18:23:13.436Z,23.50
2019-05-22T18:25:43.843Z,20.43
2019-05-22T18:28:13.431Z,23.53
2019-05-22T18:30:42.926Z,23.80
2019-05-22T18:33:12.623Z,21.23
2019-05-22T18:35:41.347Z,22.27
2019-05-22T18:38:10.131Z,25.07
2019-05-22T18:40:38.869Z,22.83
2019-05-22T18:43:07.424Z,22.80
2019-05-22T18:45:36.454Z,21.10
2019-05-22T18:48:05.869Z,23.63
2019-05-22T18:50:35.974Z,23.77
2019-05-22T18:53:05.446Z,24.63
2019-05-22T18:55:34.189Z,22.53
2019-05-22T18:58:02.730Z,25.63
2019-05-22T19:00:32.836Z,28.90
2019-05-22T19:03:01.388Z,24.60
2019-05-22T19:05:31.671Z,26.63
2019-05-22T19:08:00.464Z,21.80
2019-05-22T19:10:29.109Z,24.83
2019-05-22T19:12:57.956Z,24.80
2019-05-22T19:15:26.684Z,29.90
2019-05-22T19:17:55.399Z,27.53
2019-05-22T19:20:24.300Z,26.03
2019-05-22T19:23:00.087Z,23.43
2019-05-22T19:25:23.691Z,22.27
2019-05-22T19:27:52.522Z,22.53
2019-05-22T19:30:21.932Z,24.37
2019-05-22T19:32:50.993Z,26.60
2019-05-22T19:35:19.713Z,22.93
2019-05-22T19:37:48.920Z,23.57
2019-05-22T19:40:18.503Z,24.97
2019-05-22T19:42:47.634Z,25.60
2019-05-22T19:45:17.296Z,20.53
2019-05-22T19:47:51.174Z,23.87
2019-05-22T19:50:23.712Z,25.80
2019-05-22T19:52:53.175Z,23.50
2019-05-22T19:55:23.290Z,26.60
2019-05-22T19:57:52.182Z,24.57
2019-05-22T20:00:22.235Z,25.13
2019-05-22T20:02:51.250Z,25.33
2019-05-22T20:05:22.798Z,21.73
2019-05-22T20:07:51.986Z,25.40
2019-05-22T20:10:21.850Z,24.30
2019-05-22T20:12:50.785Z,25.60
2019-05-22T20:15:20.390Z,21.47
2019-05-22T20:17:49.226Z,22.33
2019-05-22T20:20:19.953Z,20.63
2019-05-22T20:22:49.787Z,24.03
2019-05-22T20:25:20.559Z,23.60
2019-05-22T20:27:49.190Z,22.03
2019-05-22T20:30:20.048Z,25.23
2019-05-22T20:32:49.052Z,22.07
2019-05-22T20:35:18.152Z,27.13
2019-05-22T20:37:47.707Z,18.80
2019-05-22T20:40:19.286Z,24.40
2019-05-22T20:42:48.129Z,24.10
2019-05-22T20:45:19.214Z,19.40
2019-05-22T20:47:49.417Z,26.20
2019-05-22T20:50:20.011Z,22.67
2019-05-22T20:52:49.813Z,20.60
2019-05-22T20:55:19.334Z,25.03
2019-05-22T20:57:48.632Z,20.20
2019-05-22T21:00:20.103Z,18.73
2019-05-22T21:02:50.784Z,22.03
2019-05-22T21:05:21.580Z,23.57
2019-05-22T21:07:51.910Z,18.70
2019-05-22T21:10:23.182Z,22.77
2019-05-22T21:12:53.386Z,21.43
2019-05-22T21:15:21.958Z,19.33
2019-05-22T21:17:52.169Z,20.20
2019-05-22T21:20:22.452Z,17.97
2019-05-22T21:22:52.017Z,17.47
2019-05-22T21:25:21.099Z,17.93
2019-05-22T21:27:50.203Z,18.13
2019-05-22T21:30:19.784Z,19.30
2019-05-22T21:32:49.189Z,17.50
2019-05-22T21:35:18.519Z,20.40
2019-05-22T21:37:47.678Z,15.67
2019-05-22T21:40:19.602Z,19.47
2019-05-22T21:42:48.926Z,15.23
2019-05-22T21:45:18.262Z,14.03
2019-05-22T21:47:46.843Z,14.17
2019-05-22T21:50:16.917Z,14.20
2019-05-22T21:52:45.549Z,15.53
2019-05-22T21:55:14.558Z,15.20
2019-05-22T21:57:44.567Z,14.00
2019-05-22T22:00:35.805Z,18.33
2019-05-22T22:03:07.103Z,12.90
2019-05-22T22:05:37.463Z,14.63
2019-05-22T22:08:07.082Z,15.93
2019-05-22T22:10:36.416Z,15.17
2019-05-22T22:13:07.929Z,17.13
2019-05-22T22:15:46.193Z,14.80
2019-05-22T22:18:15.720Z,15.57
2019-05-22T22:20:45.249Z,15.83
2019-05-22T22:23:16.413Z,17.03
2019-05-22T22:25:46.230Z,16.83
2019-05-22T22:28:16.550Z,16.53
2019-05-22T22:31:05.225Z,16.40
2019-05-22T22:33:35.008Z,17.30
2019-05-22T22:36:04.511Z,14.77
2019-05-22T22:38:33.359Z,14.83
2019-05-22T22:41:02.602Z,14.90
2019-05-22T22:43:33.036Z,15.77
2019-05-22T22:46:05.331Z,20.27
2019-05-22T22:48:39.126Z,14.00
2019-05-22T22:51:12.111Z,14.70
2019-05-22T22:54:01.753Z,14.57
2019-05-22T22:56:30.769Z,14.00
2019-05-22T22:59:00.571Z,14.87
2019-05-22T23:01:32.975Z,14.13
2019-05-22T23:04:05.552Z,13.40
2019-05-22T23:06:36.308Z,14.10
2019-05-22T23:09:07.246Z,13.90
2019-05-22T23:11:39.406Z,14.10
2019-05-22T23:14:08.977Z,15.30
2019-05-22T23:16:39.777Z,14.47
2019-05-22T23:19:11.422Z,14.37
2019-05-22T23:21:40.691Z,17.90
2019-05-22T23:24:09.822Z,14.37
2019-05-22T23:26:38.677Z,16.03
2019-05-22T23:29:08.572Z,14.50
2019-05-22T23:31:38.380Z,13.53
2019-05-22T23:34:08.094Z,16.10
2019-05-22T23:36:37.455Z,12.97
2019-05-22T23:39:11.967Z,14.97
2019-05-22T23:41:41.272Z,14.23
2019-05-22T23:44:12.314Z,15.87
2019-05-22T23:46:41.826Z,14.50
2019-05-22T23:49:11.629Z,13.30
2019-05-22T23:51:40.574Z,13.83
2019-05-22T23:54:10.304Z,14.83
2019-05-22T23:56:39.982Z,16.23
2019-05-22T23:59:10.743Z,15.93
